Chula Vista, CA

6:31 AM PDT on October 23, 2014 (GMT -0700)
San Diego International-Lindbergh | Change Station
CLOSE
Current Station
Airport
Location: San Diego,
Elevation: 30 ft
Nearby Weather Stations

Elev 30 ft 32.73 °N, 117.18 °W | Updated 8 minutes ago

Clear
Clear
63 °F
Feels Like 63 °F
N
0
Wind Variable Wind from North

Today
High -- | Low -- °F
--% Chance of Precip.
Yesterday
High -- | Low -- °F
Precip. -- in
6:58 AM 6:06 PM
Waning Crescent, 0% visible
Pressure 29.96 in
Visibility 7.0 miles
Clouds Scattered Clouds 100 ft
Dew Point 55 °F
Humidity 77%
Rainfall 0.00 in
Snow Depth Not available.
UV 0 out of 12
Pollen 3.80 out of 12
Ozone Good
PM2.5 Moderate
Flu Activity Sporadic
SPECI KSAN 231323Z 00000KT 7SM R09/1200VP6000FT BCFG SCT001 17/13 A2996 RMK AO2 VIS SW 1/2

More Conditions Fewer Conditions

Pressure 29.96 in
Visibility 7.0 miles
Clouds Scattered Clouds 100 ft
Dew Point 55 °F
Humidity 77%
Rainfall 0.00 in
Snow Depth Not available.
UV 0 out of 12
Pollen 3.80 out of 12
Ozone Good
PM2.5 Moderate
Flu Activity Sporadic
SPECI KSAN 231323Z 00000KT 7SM R09/1200VP6000FT BCFG SCT001 17/13 A2996 RMK AO2 VIS SW 1/2

More Conditions Fewer Conditions

10-Day Weather Forecast

Almanac

Astronomy

Oct. 23, 2014 Rise Set
Actual Time 6:58 AM PDT 6:06 PM PDT
Civil Twilight 6:33 AM PDT 6:31 PM PDT
Nautical Twilight 6:04 AM PDT 7:00 PM PDT
Astronomical Twilight 5:35 AM PDT 7:28 PM PDT
Moon 6:43 AM PDT 6:10 PM PDT
Length of Visible Light 11h 57m
Length of Day
11h 07m
Tomorrow will be 1m 50s shorter.
Waning Crescent, 0% of the Moon is Illuminated
Today
Waning Crescent
Oct 23
New
Oct 30
First Quarter
Nov 6
Full
Nov 14
Last Quarter

Today's Extremes

State Highs State Lows

Community

WunderPhotos

Upload Photos

1,764,238 photos uploaded!

Nearby

Air Quality

  Air Quality AQ Index Pollutant
Yesterday Moderate
PM2.5
Yesterday Good
OZONE
Current Moderate
PM2.5
Current Good
OZONE
Thursday Moderate
PM2.5
Thursday Good
OZONE

Snow Depth

Station Depth Elevation
Virginia Lakes Ridge 0 in 9200 ft
Leavitt Lake 1 in 9400 ft
Leavitt Meadows 1 in 7200 ft
Sonora Pass 0 in 8800 ft
Summit Meadow 2 in 9122 ft

Earthquake Activity

City Distance Mag. Time & Date
Alberto Oviedo Mota, Mexico 111 miles 3.5 9:05 PM PDT
2014-10-21
Delta, Mexico 107 miles 2.5 8:53 PM PDT
2014-10-21
Alberto Oviedo Mota, Mexico 114 miles 2.7 4:13 PM PDT
2014-10-21
Alberto Oviedo Mota, Mexico 112 miles 3.3 3:57 PM PDT
2014-10-21
Minimum magnitude displayed is 2.5.

Coastal Water Temperatures

Place Temperature
La Jolla, CA 70.0 °F
San Diego, CA 73.9 °F

Nearby Weather Stations